sensor_id;sensor_type;location;lat;lon;timestamp;temperature;humidity
18974;DHT22;9621;48.690;9.466;2022-07-05T00:01:26;13.90;93.50
18974;DHT22;9621;48.690;9.466;2022-07-05T00:03:53;13.80;94.40
18974;DHT22;9621;48.690;9.466;2022-07-05T00:06:20;13.80;94.60
18974;DHT22;9621;48.690;9.466;2022-07-05T00:08:47;13.80;95.30
18974;DHT22;9621;48.690;9.466;2022-07-05T00:11:14;13.70;95.20
18974;DHT22;9621;48.690;9.466;2022-07-05T00:13:41;13.70;95.30
18974;DHT22;9621;48.690;9.466;2022-07-05T00:16:08;13.70;95.50
18974;DHT22;9621;48.690;9.466;2022-07-05T00:18:36;13.60;95.80
18974;DHT22;9621;48.690;9.466;2022-07-05T00:21:03;13.60;96.40
18974;DHT22;9621;48.690;9.466;2022-07-05T00:23:30;13.50;96.70
18974;DHT22;9621;48.690;9.466;2022-07-05T00:25:57;13.50;96.70
18974;DHT22;9621;48.690;9.466;2022-07-05T00:28:24;13.40;96.90
18974;DHT22;9621;48.690;9.466;2022-07-05T00:30:52;13.40;97.30
18974;DHT22;9621;48.690;9.466;2022-07-05T00:33:19;13.30;97.70
18974;DHT22;9621;48.690;9.466;2022-07-05T00:35:47;13.20;98.20
18974;DHT22;9621;48.690;9.466;2022-07-05T00:38:14;13.20;98.90
18974;DHT22;9621;48.690;9.466;2022-07-05T00:40:42;13.10;98.70
18974;DHT22;9621;48.690;9.466;2022-07-05T00:43:10;13.10;99.00
18974;DHT22;9621;48.690;9.466;2022-07-05T00:45:37;13.00;99.00
18974;DHT22;9621;48.690;9.466;2022-07-05T00:48:04;13.00;99.20
18974;DHT22;9621;48.690;9.466;2022-07-05T00:50:31;13.00;99.30
18974;DHT22;9621;48.690;9.466;2022-07-05T00:53:00;12.90;99.40
18974;DHT22;9621;48.690;9.466;2022-07-05T00:55:27;12.90;99.90
18974;DHT22;9621;48.690;9.466;2022-07-05T00:57:55;12.90;99.70
18974;DHT22;9621;48.690;9.466;2022-07-05T01:00:22;12.80;99.80
18974;DHT22;9621;48.690;9.466;2022-07-05T01:02:49;12.80;99.90
18974;DHT22;9621;48.690;9.466;2022-07-05T01:05:16;12.80;99.90
18974;DHT22;9621;48.690;9.466;2022-07-05T01:07:43;12.80;99.90
18974;DHT22;9621;48.690;9.466;2022-07-05T01:10:12;12.70;99.90
18974;DHT22;9621;48.690;9.466;2022-07-05T01:12:39;12.70;99.90
18974;DHT22;9621;48.690;9.466;2022-07-05T01:15:07;12.70;99.90
18974;DHT22;9621;48.690;9.466;2022-07-05T01:17:34;12.60;99.90
18974;DHT22;9621;48.690;9.466;2022-07-05T01:20:03;12.60;99.90
18974;DHT22;9621;48.690;9.466;2022-07-05T01:22:49;12.50;99.90
18974;DHT22;9621;48.690;9.466;2022-07-05T01:25:18;12.50;99.90
18974;DHT22;9621;48.690;9.466;2022-07-05T01:27:47;12.50;99.90
18974;DHT22;9621;48.690;9.466;2022-07-05T01:30:14;12.50;99.90
18974;DHT22;9621;48.690;9.466;2022-07-05T01:32:41;12.30;99.90
18974;DHT22;9621;48.690;9.466;2022-07-05T01:35:09;12.40;99.90
18974;DHT22;9621;48.690;9.466;2022-07-05T01:37:38;12.30;99.90
18974;DHT22;9621;48.690;9.466;2022-07-05T01:40:06;12.30;99.90
18974;DHT22;9621;48.690;9.466;2022-07-05T01:42:33;12.30;99.90
18974;DHT22;9621;48.690;9.466;2022-07-05T01:45:00;12.20;99.90
18974;DHT22;9621;48.690;9.466;2022-07-05T01:47:27;12.20;99.90
18974;DHT22;9621;48.690;9.466;2022-07-05T01:49:57;12.20;99.90
18974;DHT22;9621;48.690;9.466;2022-07-05T01:52:27;12.10;99.90
18974;DHT22;9621;48.690;9.466;2022-07-05T01:54:57;12.10;99.90
18974;DHT22;9621;48.690;9.466;2022-07-05T01:57:27;12.10;99.90
18974;DHT22;9621;48.690;9.466;2022-07-05T01:59:54;12.10;99.90
18974;DHT22;9621;48.690;9.466;2022-07-05T02:02:21;12.00;99.90
18974;DHT22;9621;48.690;9.466;2022-07-05T02:04:48;12.00;99.90
18974;DHT22;9621;48.690;9.466;2022-07-05T02:07:15;12.00;99.90
18974;DHT22;9621;48.690;9.466;2022-07-05T02:09:42;11.90;99.90
18974;DHT22;9621;48.690;9.466;2022-07-05T02:12:10;11.90;99.90
18974;DHT22;9621;48.690;9.466;2022-07-05T02:14:37;11.90;99.90
18974;DHT22;9621;48.690;9.466;2022-07-05T02:17:04;11.90;99.90
18974;DHT22;9621;48.690;9.466;2022-07-05T02:19:31;11.90;99.90
18974;DHT22;9621;48.690;9.466;2022-07-05T02:21:58;12.00;99.90
18974;DHT22;9621;48.690;9.466;2022-07-05T02:24:25;12.00;99.90
18974;DHT22;9621;48.690;9.466;2022-07-05T02:26:52;12.10;99.90
18974;DHT22;9621;48.690;9.466;2022-07-05T02:29:21;12.10;99.90
18974;DHT22;9621;48.690;9.466;2022-07-05T02:31:48;12.10;99.90
18974;DHT22;9621;48.690;9.466;2022-07-05T02:34:14;12.10;99.90
18974;DHT22;9621;48.690;9.466;2022-07-05T02:36:41;12.10;99.90
18974;DHT22;9621;48.690;9.466;2022-07-05T02:39:08;12.10;99.90
18974;DHT22;9621;48.690;9.466;2022-07-05T02:41:35;12.10;99.90
18974;DHT22;9621;48.690;9.466;2022-07-05T02:44:02;12.00;99.90
18974;DHT22;9621;48.690;9.466;2022-07-05T02:46:31;11.90;99.90
18974;DHT22;9621;48.690;9.466;2022-07-05T02:48:58;11.90;99.90
18974;DHT22;9621;48.690;9.466;2022-07-05T02:51:25;11.90;99.90
18974;DHT22;9621;48.690;9.466;2022-07-05T02:53:52;11.80;99.90
18974;DHT22;9621;48.690;9.466;2022-07-05T02:56:19;11.80;99.90
18974;DHT22;9621;48.690;9.466;2022-07-05T02:58:46;11.70;99.90
18974;DHT22;9621;48.690;9.466;2022-07-05T03:01:13;11.70;99.90
18974;DHT22;9621;48.690;9.466;2022-07-05T03:03:42;11.70;99.90
18974;DHT22;9621;48.690;9.466;2022-07-05T03:06:09;11.60;99.90
18974;DHT22;9621;48.690;9.466;2022-07-05T03:08:36;11.50;99.90
18974;DHT22;9621;48.690;9.466;2022-07-05T03:11:03;11.50;99.90
18974;DHT22;9621;48.690;9.466;2022-07-05T03:13:30;11.50;99.90
18974;DHT22;9621;48.690;9.466;2022-07-05T03:15:57;11.40;99.90
18974;DHT22;9621;48.690;9.466;2022-07-05T03:18:24;11.40;99.90
18974;DHT22;9621;48.690;9.466;2022-07-05T03:20:52;11.30;99.90
18974;DHT22;9621;48.690;9.466;2022-07-05T03:23:19;11.30;99.90
18974;DHT22;9621;48.690;9.466;2022-07-05T03:25:46;11.30;99.90
18974;DHT22;9621;48.690;9.466;2022-07-05T03:28:13;11.30;99.90
18974;DHT22;9621;48.690;9.466;2022-07-05T03:30:40;11.30;99.90
18974;DHT22;9621;48.690;9.466;2022-07-05T03:33:07;11.20;99.90
18974;DHT22;9621;48.690;9.466;2022-07-05T03:35:34;11.20;99.90
18974;DHT22;9621;48.690;9.466;2022-07-05T03:38:03;11.20;99.90
18974;DHT22;9621;48.690;9.466;2022-07-05T03:40:30;11.10;99.90
18974;DHT22;9621;48.690;9.466;2022-07-05T03:42:57;11.20;99.90
18974;DHT22;9621;48.690;9.466;2022-07-05T03:45:24;11.10;99.90
18974;DHT22;9621;48.690;9.466;2022-07-05T03:47:50;11.10;99.90
18974;DHT22;9621;48.690;9.466;2022-07-05T03:50:18;11.10;99.90
18974;DHT22;9621;48.690;9.466;2022-07-05T03:52:45;11.10;99.90
18974;DHT22;9621;48.690;9.466;2022-07-05T03:55:13;11.10;99.90
18974;DHT22;9621;48.690;9.466;2022-07-05T03:57:40;11.10;99.90
18974;DHT22;9621;48.690;9.466;2022-07-05T04:00:08;11.10;99.90
18974;DHT22;9621;48.690;9.466;2022-07-05T04:02:35;11.30;99.90
18974;DHT22;9621;48.690;9.466;2022-07-05T04:05:03;11.50;99.90
18974;DHT22;9621;48.690;9.466;2022-07-05T04:07:30;11.90;99.90
18974;DHT22;9621;48.690;9.466;2022-07-05T04:09:57;12.20;99.90
18974;DHT22;9621;48.690;9.466;2022-07-05T04:12:25;12.60;99.90
18974;DHT22;9621;48.690;9.466;2022-07-05T04:14:52;12.90;99.90
18974;DHT22;9621;48.690;9.466;2022-07-05T04:17:19;13.40;99.90
18974;DHT22;9621;48.690;9.466;2022-07-05T04:19:47;13.70;99.90
18974;DHT22;9621;48.690;9.466;2022-07-05T04:22:14;14.00;99.90
18974;DHT22;9621;48.690;9.466;2022-07-05T04:24:41;14.40;99.90
18974;DHT22;9621;48.690;9.466;2022-07-05T04:27:32;14.70;99.90
18974;DHT22;9621;48.690;9.466;2022-07-05T04:29:59;15.10;99.90
18974;DHT22;9621;48.690;9.466;2022-07-05T04:32:27;15.50;99.90
18974;DHT22;9621;48.690;9.466;2022-07-05T04:34:54;15.80;99.90
18974;DHT22;9621;48.690;9.466;2022-07-05T04:37:21;16.10;99.80
18974;DHT22;9621;48.690;9.466;2022-07-05T04:39:50;16.50;99.30
18974;DHT22;9621;48.690;9.466;2022-07-05T04:42:17;16.90;98.70
18974;DHT22;9621;48.690;9.466;2022-07-05T04:44:46;17.20;98.20
18974;DHT22;9621;48.690;9.466;2022-07-05T04:47:13;17.50;97.40
18974;DHT22;9621;48.690;9.466;2022-07-05T04:49:40;17.80;97.10
18974;DHT22;9621;48.690;9.466;2022-07-05T04:52:07;18.10;96.70
18974;DHT22;9621;48.690;9.466;2022-07-05T04:54:35;18.40;96.00
18974;DHT22;9621;48.690;9.466;2022-07-05T04:57:03;18.60;95.60
18974;DHT22;9621;48.690;9.466;2022-07-05T04:59:30;18.90;95.00
18974;DHT22;9621;48.690;9.466;2022-07-05T05:01:58;19.20;94.60
18974;DHT22;9621;48.690;9.466;2022-07-05T05:04:26;19.50;93.90
18974;DHT22;9621;48.690;9.466;2022-07-05T05:06:53;19.80;93.60
18974;DHT22;9621;48.690;9.466;2022-07-05T05:09:20;20.10;93.10
18974;DHT22;9621;48.690;9.466;2022-07-05T05:11:48;20.60;93.00
18974;DHT22;9621;48.690;9.466;2022-07-05T05:14:15;20.70;92.00
18974;DHT22;9621;48.690;9.466;2022-07-05T05:16:42;21.10;91.40
18974;DHT22;9621;48.690;9.466;2022-07-05T05:19:11;21.40;90.90
18974;DHT22;9621;48.690;9.466;2022-07-05T05:21:38;21.60;90.00
18974;DHT22;9621;48.690;9.466;2022-07-05T05:24:06;21.90;89.60
18974;DHT22;9621;48.690;9.466;2022-07-05T05:26:33;22.10;88.50
18974;DHT22;9621;48.690;9.466;2022-07-05T05:29:00;22.30;87.50
18974;DHT22;9621;48.690;9.466;2022-07-05T05:31:27;22.40;86.80
18974;DHT22;9621;48.690;9.466;2022-07-05T05:33:54;22.60;86.20
18974;DHT22;9621;48.690;9.466;2022-07-05T05:36:23;22.90;85.20
18974;DHT22;9621;48.690;9.466;2022-07-05T05:38:50;23.10;84.40
18974;DHT22;9621;48.690;9.466;2022-07-05T05:41:17;23.40;83.70
18974;DHT22;9621;48.690;9.466;2022-07-05T05:43:45;23.70;82.80
18974;DHT22;9621;48.690;9.466;2022-07-05T05:46:12;23.90;82.70
18974;DHT22;9621;48.690;9.466;2022-07-05T05:48:39;24.20;81.60
18974;DHT22;9621;48.690;9.466;2022-07-05T05:51:06;24.50;80.60
18974;DHT22;9621;48.690;9.466;2022-07-05T05:53:34;24.60;79.30
18974;DHT22;9621;48.690;9.466;2022-07-05T05:56:01;24.80;77.70
18974;DHT22;9621;48.690;9.466;2022-07-05T05:58:29;25.00;77.30
18974;DHT22;9621;48.690;9.466;2022-07-05T06:00:56;25.10;75.90
18974;DHT22;9621;48.690;9.466;2022-07-05T06:03:25;25.30;75.20
18974;DHT22;9621;48.690;9.466;2022-07-05T06:05:52;25.30;73.90
18974;DHT22;9621;48.690;9.466;2022-07-05T06:08:21;25.40;73.40
18974;DHT22;9621;48.690;9.466;2022-07-05T06:10:50;25.50;72.80
18974;DHT22;9621;48.690;9.466;2022-07-05T06:13:17;25.60;72.10
18974;DHT22;9621;48.690;9.466;2022-07-05T06:15:45;25.40;72.30
18974;DHT22;9621;48.690;9.466;2022-07-05T06:18:12;25.80;72.20
18974;DHT22;9621;48.690;9.466;2022-07-05T06:20:39;25.90;71.30
18974;DHT22;9621;48.690;9.466;2022-07-05T06:23:07;26.10;71.50
18974;DHT22;9621;48.690;9.466;2022-07-05T06:25:34;26.20;69.90
18974;DHT22;9621;48.690;9.466;2022-07-05T06:28:05;26.30;69.70
18974;DHT22;9621;48.690;9.466;2022-07-05T06:30:34;26.30;68.00
18974;DHT22;9621;48.690;9.466;2022-07-05T06:33:02;26.50;68.00
18974;DHT22;9621;48.690;9.466;2022-07-05T06:35:29;26.60;67.60
18974;DHT22;9621;48.690;9.466;2022-07-05T06:37:59;26.70;67.50
18974;DHT22;9621;48.690;9.466;2022-07-05T06:40:27;26.90;66.30
18974;DHT22;9621;48.690;9.466;2022-07-05T06:42:56;27.10;65.90
18974;DHT22;9621;48.690;9.466;2022-07-05T06:45:25;27.20;65.30
18974;DHT22;9621;48.690;9.466;2022-07-05T06:47:56;27.40;63.90
18974;DHT22;9621;48.690;9.466;2022-07-05T06:50:24;27.60;63.50
18974;DHT22;9621;48.690;9.466;2022-07-05T06:52:51;27.80;64.10
18974;DHT22;9621;48.690;9.466;2022-07-05T06:55:19;28.10;63.40
18974;DHT22;9621;48.690;9.466;2022-07-05T06:57:46;28.30;62.10
18974;DHT22;9621;48.690;9.466;2022-07-05T07:00:14;28.60;61.00
18974;DHT22;9621;48.690;9.466;2022-07-05T07:02:43;28.70;60.40
18974;DHT22;9621;48.690;9.466;2022-07-05T07:05:10;28.90;60.00
18974;DHT22;9621;48.690;9.466;2022-07-05T07:07:37;29.00;59.40
18974;DHT22;9621;48.690;9.466;2022-07-05T07:10:21;29.10;58.90
18974;DHT22;9621;48.690;9.466;2022-07-05T07:12:48;29.10;58.00
18974;DHT22;9621;48.690;9.466;2022-07-05T07:15:16;29.20;58.40
18974;DHT22;9621;48.690;9.466;2022-07-05T07:17:44;29.10;57.50
18974;DHT22;9621;48.690;9.466;2022-07-05T07:20:11;29.00;56.70
18974;DHT22;9621;48.690;9.466;2022-07-05T07:22:39;29.00;57.30
18974;DHT22;9621;48.690;9.466;2022-07-05T07:25:07;29.10;56.90
18974;DHT22;9621;48.690;9.466;2022-07-05T07:27:41;29.20;55.70
18974;DHT22;9621;48.690;9.466;2022-07-05T07:30:11;29.20;55.00
18974;DHT22;9621;48.690;9.466;2022-07-05T07:32:38;29.20;56.20
18974;DHT22;9621;48.690;9.466;2022-07-05T07:35:08;29.20;55.40
18974;DHT22;9621;48.690;9.466;2022-07-05T07:37:36;29.20;54.20
18974;DHT22;9621;48.690;9.466;2022-07-05T07:40:04;29.20;54.80
18974;DHT22;9621;48.690;9.466;2022-07-05T07:42:31;29.20;54.80
18974;DHT22;9621;48.690;9.466;2022-07-05T07:44:59;29.30;54.50
18974;DHT22;9621;48.690;9.466;2022-07-05T07:47:29;29.40;53.90
18974;DHT22;9621;48.690;9.466;2022-07-05T07:49:56;29.60;53.10
18974;DHT22;9621;48.690;9.466;2022-07-05T07:52:24;29.60;52.70
18974;DHT22;9621;48.690;9.466;2022-07-05T07:54:52;29.50;52.30
18974;DHT22;9621;48.690;9.466;2022-07-05T07:57:19;29.50;52.20
18974;DHT22;9621;48.690;9.466;2022-07-05T07:59:46;29.50;51.80
18974;DHT22;9621;48.690;9.466;2022-07-05T08:02:13;29.50;51.50
18974;DHT22;9621;48.690;9.466;2022-07-05T08:04:40;29.40;51.20
18974;DHT22;9621;48.690;9.466;2022-07-05T08:07:07;29.50;52.50
18974;DHT22;9621;48.690;9.466;2022-07-05T08:09:36;29.70;53.10
18974;DHT22;9621;48.690;9.466;2022-07-05T08:12:04;29.80;51.30
18974;DHT22;9621;48.690;9.466;2022-07-05T08:14:32;29.90;51.20
18974;DHT22;9621;48.690;9.466;2022-07-05T08:16:59;30.10;50.90
18974;DHT22;9621;48.690;9.466;2022-07-05T08:19:26;30.20;50.50
18974;DHT22;9621;48.690;9.466;2022-07-05T08:22:11;30.10;49.70
18974;DHT22;9621;48.690;9.466;2022-07-05T08:24:39;29.80;50.10
18974;DHT22;9621;48.690;9.466;2022-07-05T08:27:07;29.70;50.40
18974;DHT22;9621;48.690;9.466;2022-07-05T08:29:34;29.80;50.40
18974;DHT22;9621;48.690;9.466;2022-07-05T08:32:02;29.90;49.70
18974;DHT22;9621;48.690;9.466;2022-07-05T08:34:29;29.80;48.30
18974;DHT22;9621;48.690;9.466;2022-07-05T08:36:56;29.50;48.40
18974;DHT22;9621;48.690;9.466;2022-07-05T08:39:23;29.30;48.70
18974;DHT22;9621;48.690;9.466;2022-07-05T08:41:52;29.20;48.90
18974;DHT22;9621;48.690;9.466;2022-07-05T08:44:21;29.20;48.70
18974;DHT22;9621;48.690;9.466;2022-07-05T08:46:50;29.30;48.80
18974;DHT22;9621;48.690;9.466;2022-07-05T08:49:21;29.40;48.00
18974;DHT22;9621;48.690;9.466;2022-07-05T08:51:50;29.50;46.70
18974;DHT22;9621;48.690;9.466;2022-07-05T08:54:17;29.60;47.50
18974;DHT22;9621;48.690;9.466;2022-07-05T08:56:45;29.60;48.00
18974;DHT22;9621;48.690;9.466;2022-07-05T08:59:13;29.70;48.00
18974;DHT22;9621;48.690;9.466;2022-07-05T09:01:41;29.70;47.50
18974;DHT22;9621;48.690;9.466;2022-07-05T09:04:08;29.70;47.80
18974;DHT22;9621;48.690;9.466;2022-07-05T09:06:38;29.70;47.70
18974;DHT22;9621;48.690;9.466;2022-07-05T09:09:06;29.70;47.70
18974;DHT22;9621;48.690;9.466;2022-07-05T09:11:36;29.80;48.00
18974;DHT22;9621;48.690;9.466;2022-07-05T09:14:05;29.80;48.70
18974;DHT22;9621;48.690;9.466;2022-07-05T09:16:34;30.10;49.60
18974;DHT22;9621;48.690;9.466;2022-07-05T09:19:08;30.30;48.70
18974;DHT22;9621;48.690;9.466;2022-07-05T09:21:35;30.50;47.20
18974;DHT22;9621;48.690;9.466;2022-07-05T09:24:04;30.50;46.70
18974;DHT22;9621;48.690;9.466;2022-07-05T09:26:35;30.50;47.30
18974;DHT22;9621;48.690;9.466;2022-07-05T09:29:03;30.60;47.90
18974;DHT22;9621;48.690;9.466;2022-07-05T09:31:35;30.70;47.80
18974;DHT22;9621;48.690;9.466;2022-07-05T09:34:06;30.80;47.00
18974;DHT22;9621;48.690;9.466;2022-07-05T09:36:53;30.90;46.70
18974;DHT22;9621;48.690;9.466;2022-07-05T09:39:36;31.00;47.00
18974;DHT22;9621;48.690;9.466;2022-07-05T09:42:11;31.10;46.40
18974;DHT22;9621;48.690;9.466;2022-07-05T09:44:38;31.20;45.30
18974;DHT22;9621;48.690;9.466;2022-07-05T09:47:11;31.20;46.50
18974;DHT22;9621;48.690;9.466;2022-07-05T09:49:42;31.30;45.90
18974;DHT22;9621;48.690;9.466;2022-07-05T09:52:10;31.50;45.90
18974;DHT22;9621;48.690;9.466;2022-07-05T09:54:38;31.50;44.80
18974;DHT22;9621;48.690;9.466;2022-07-05T09:57:06;31.40;44.50
18974;DHT22;9621;48.690;9.466;2022-07-05T09:59:34;31.30;44.40
18974;DHT22;9621;48.690;9.466;2022-07-05T10:02:02;31.10;44.10
18974;DHT22;9621;48.690;9.466;2022-07-05T10:04:30;31.10;43.50
18974;DHT22;9621;48.690;9.466;2022-07-05T10:06:57;31.20;44.40
18974;DHT22;9621;48.690;9.466;2022-07-05T10:09:24;31.30;42.90
18974;DHT22;9621;48.690;9.466;2022-07-05T10:11:51;31.10;43.10
18974;DHT22;9621;48.690;9.466;2022-07-05T10:14:21;31.00;42.50
18974;DHT22;9621;48.690;9.466;2022-07-05T10:17:00;30.90;43.40
18974;DHT22;9621;48.690;9.466;2022-07-05T10:19:33;30.80;44.80
18974;DHT22;9621;48.690;9.466;2022-07-05T10:22:01;31.00;44.00
18974;DHT22;9621;48.690;9.466;2022-07-05T10:24:33;30.90;42.00
18974;DHT22;9621;48.690;9.466;2022-07-05T10:27:02;30.80;41.90
18974;DHT22;9621;48.690;9.466;2022-07-05T10:29:32;30.70;41.30
18974;DHT22;9621;48.690;9.466;2022-07-05T10:32:01;30.40;40.70
18974;DHT22;9621;48.690;9.466;2022-07-05T10:34:32;30.00;41.30
18974;DHT22;9621;48.690;9.466;2022-07-05T10:36:59;29.70;41.10
18974;DHT22;9621;48.690;9.466;2022-07-05T10:39:26;29.40;42.30
18974;DHT22;9621;48.690;9.466;2022-07-05T10:41:55;29.30;42.20
18974;DHT22;9621;48.690;9.466;2022-07-05T10:44:26;29.30;42.20
18974;DHT22;9621;48.690;9.466;2022-07-05T10:47:06;29.30;41.60
18974;DHT22;9621;48.690;9.466;2022-07-05T10:49:36;29.40;41.90
18974;DHT22;9621;48.690;9.466;2022-07-05T10:52:04;29.40;42.00
18974;DHT22;9621;48.690;9.466;2022-07-05T10:54:32;29.30;42.20
18974;DHT22;9621;48.690;9.466;2022-07-05T10:57:21;29.40;43.10
18974;DHT22;9621;48.690;9.466;2022-07-05T11:00:08;29.50;42.20
18974;DHT22;9621;48.690;9.466;2022-07-05T11:02:35;29.70;42.50
18974;DHT22;9621;48.690;9.466;2022-07-05T11:05:04;29.90;42.40
18974;DHT22;9621;48.690;9.466;2022-07-05T11:07:59;30.10;41.80
18974;DHT22;9621;48.690;9.466;2022-07-05T11:10:27;30.10;40.80
18974;DHT22;9621;48.690;9.466;2022-07-05T11:12:57;30.10;40.80
18974;DHT22;9621;48.690;9.466;2022-07-05T11:15:24;30.10;39.10
18974;DHT22;9621;48.690;9.466;2022-07-05T11:18:14;30.10;40.10
18974;DHT22;9621;48.690;9.466;2022-07-05T11:20:43;30.10;38.80
18974;DHT22;9621;48.690;9.466;2022-07-05T11:23:12;30.10;40.20
18974;DHT22;9621;48.690;9.466;2022-07-05T11:25:43;30.10;39.20
18974;DHT22;9621;48.690;9.466;2022-07-05T11:28:19;30.20;39.40
18974;DHT22;9621;48.690;9.466;2022-07-05T11:30:53;30.40;39.70
18974;DHT22;9621;48.690;9.466;2022-07-05T11:33:42;30.60;38.90
18974;DHT22;9621;48.690;9.466;2022-07-05T11:36:26;30.80;39.80
18974;DHT22;9621;48.690;9.466;2022-07-05T11:39:10;31.10;39.20
18974;DHT22;9621;48.690;9.466;2022-07-05T11:41:42;31.40;39.40
18974;DHT22;9621;48.690;9.466;2022-07-05T11:44:10;31.60;38.90
18974;DHT22;9621;48.690;9.466;2022-07-05T11:46:38;31.80;37.70
18974;DHT22;9621;48.690;9.466;2022-07-05T11:49:06;31.80;37.10
18974;DHT22;9621;48.690;9.466;2022-07-05T11:51:35;31.70;36.70
18974;DHT22;9621;48.690;9.466;2022-07-05T11:54:02;31.40;36.30
18974;DHT22;9621;48.690;9.466;2022-07-05T11:56:31;31.20;36.80
18974;DHT22;9621;48.690;9.466;2022-07-05T11:58:58;31.10;37.00
18974;DHT22;9621;48.690;9.466;2022-07-05T12:01:25;31.00;37.10
18974;DHT22;9621;48.690;9.466;2022-07-05T12:03:53;30.90;36.20
18974;DHT22;9621;48.690;9.466;2022-07-05T12:06:21;30.90;37.20
18974;DHT22;9621;48.690;9.466;2022-07-05T12:09:03;32.30;38.70
18974;DHT22;9621;48.690;9.466;2022-07-05T12:11:30;31.00;37.40
18974;DHT22;9621;48.690;9.466;2022-07-05T12:14:21;31.00;37.50
18974;DHT22;9621;48.690;9.466;2022-07-05T12:16:49;31.10;37.20
18974;DHT22;9621;48.690;9.466;2022-07-05T12:19:26;31.30;38.10
18974;DHT22;9621;48.690;9.466;2022-07-05T12:21:53;31.30;35.30
18974;DHT22;9621;48.690;9.466;2022-07-05T12:24:22;31.40;36.80
18974;DHT22;9621;48.690;9.466;2022-07-05T12:26:50;31.50;36.50
18974;DHT22;9621;48.690;9.466;2022-07-05T12:29:18;31.70;36.10
18974;DHT22;9621;48.690;9.466;2022-07-05T12:32:00;31.80;36.50
18974;DHT22;9621;48.690;9.466;2022-07-05T12:34:27;31.90;35.60
18974;DHT22;9621;48.690;9.466;2022-07-05T12:36:55;32.10;36.10
18974;DHT22;9621;48.690;9.466;2022-07-05T12:39:24;32.30;35.30
18974;DHT22;9621;48.690;9.466;2022-07-05T12:41:52;32.40;34.50
18974;DHT22;9621;48.690;9.466;2022-07-05T12:44:20;32.40;34.60
18974;DHT22;9621;48.690;9.466;2022-07-05T12:46:47;32.40;35.30
18974;DHT22;9621;48.690;9.466;2022-07-05T12:49:16;32.50;35.00
18974;DHT22;9621;48.690;9.466;2022-07-05T12:51:44;32.50;35.10
18974;DHT22;9621;48.690;9.466;2022-07-05T12:54:19;32.60;34.20
18974;DHT22;9621;48.690;9.466;2022-07-05T12:57:06;32.70;33.10
18974;DHT22;9621;48.690;9.466;2022-07-05T12:59:58;32.60;33.90
18974;DHT22;9621;48.690;9.466;2022-07-05T13:02:38;32.50;33.70
18974;DHT22;9621;48.690;9.466;2022-07-05T13:05:07;32.60;34.80
18974;DHT22;9621;48.690;9.466;2022-07-05T13:07:41;32.70;34.60
18974;DHT22;9621;48.690;9.466;2022-07-05T13:10:21;32.60;33.00
18974;DHT22;9621;48.690;9.466;2022-07-05T13:12:50;32.50;32.70
18974;DHT22;9621;48.690;9.466;2022-07-05T13:15:17;32.50;33.10
18974;DHT22;9621;48.690;9.466;2022-07-05T13:17:44;32.30;32.50
18974;DHT22;9621;48.690;9.466;2022-07-05T13:20:13;32.10;32.70
18974;DHT22;9621;48.690;9.466;2022-07-05T13:22:40;32.10;32.90
18974;DHT22;9621;48.690;9.466;2022-07-05T13:25:08;32.20;33.10
18974;DHT22;9621;48.690;9.466;2022-07-05T13:27:37;32.10;34.60
18974;DHT22;9621;48.690;9.466;2022-07-05T13:30:06;32.20;33.90
18974;DHT22;9621;48.690;9.466;2022-07-05T13:32:33;32.50;34.60
18974;DHT22;9621;48.690;9.466;2022-07-05T13:35:03;32.70;34.10
18974;DHT22;9621;48.690;9.466;2022-07-05T13:37:30;32.90;33.70
18974;DHT22;9621;48.690;9.466;2022-07-05T13:39:58;32.80;32.60
18974;DHT22;9621;48.690;9.466;2022-07-05T13:42:25;32.90;32.10
18974;DHT22;9621;48.690;9.466;2022-07-05T13:44:52;32.70;31.90
18974;DHT22;9621;48.690;9.466;2022-07-05T13:47:20;32.60;32.80
18974;DHT22;9621;48.690;9.466;2022-07-05T13:49:47;32.60;32.40
18974;DHT22;9621;48.690;9.466;2022-07-05T13:52:35;32.50;33.30
18974;DHT22;9621;48.690;9.466;2022-07-05T13:55:01;32.60;33.20
18974;DHT22;9621;48.690;9.466;2022-07-05T13:57:28;32.80;33.30
18974;DHT22;9621;48.690;9.466;2022-07-05T13:59:57;32.80;32.30
18974;DHT22;9621;48.690;9.466;2022-07-05T14:02:25;32.80;32.30
18974;DHT22;9621;48.690;9.466;2022-07-05T14:04:54;32.60;32.40
18974;DHT22;9621;48.690;9.466;2022-07-05T14:07:21;32.50;33.20
18974;DHT22;9621;48.690;9.466;2022-07-05T14:09:48;32.50;32.40
18974;DHT22;9621;48.690;9.466;2022-07-05T14:12:15;32.60;33.50
18974;DHT22;9621;48.690;9.466;2022-07-05T14:14:43;32.50;32.80
18974;DHT22;9621;48.690;9.466;2022-07-05T14:17:10;32.70;32.80
18974;DHT22;9621;48.690;9.466;2022-07-05T14:19:38;32.70;32.50
18974;DHT22;9621;48.690;9.466;2022-07-05T14:22:05;32.90;32.70
18974;DHT22;9621;48.690;9.466;2022-07-05T14:24:32;32.90;32.90
18974;DHT22;9621;48.690;9.466;2022-07-05T14:27:00;33.10;32.30
18974;DHT22;9621;48.690;9.466;2022-07-05T14:29:27;33.20;32.30
18974;DHT22;9621;48.690;9.466;2022-07-05T14:31:54;33.30;32.00
18974;DHT22;9621;48.690;9.466;2022-07-05T14:34:22;33.30;32.20
18974;DHT22;9621;48.690;9.466;2022-07-05T14:36:51;33.20;32.30
18974;DHT22;9621;48.690;9.466;2022-07-05T14:39:18;33.10;32.30
18974;DHT22;9621;48.690;9.466;2022-07-05T14:41:45;32.90;32.00
18974;DHT22;9621;48.690;9.466;2022-07-05T14:44:12;32.60;32.10
18974;DHT22;9621;48.690;9.466;2022-07-05T14:46:41;32.40;32.90
18974;DHT22;9621;48.690;9.466;2022-07-05T14:49:08;32.10;32.70
18974;DHT22;9621;48.690;9.466;2022-07-05T14:51:35;31.80;32.70
18974;DHT22;9621;48.690;9.466;2022-07-05T14:54:03;31.70;33.80
18974;DHT22;9621;48.690;9.466;2022-07-05T14:56:31;31.80;35.10
18974;DHT22;9621;48.690;9.466;2022-07-05T14:58:57;31.90;33.90
18974;DHT22;9621;48.690;9.466;2022-07-05T15:01:24;31.90;33.10
18974;DHT22;9621;48.690;9.466;2022-07-05T15:03:52;31.80;33.40
18974;DHT22;9621;48.690;9.466;2022-07-05T15:06:19;31.50;33.70
18974;DHT22;9621;48.690;9.466;2022-07-05T15:08:46;31.30;33.70
18974;DHT22;9621;48.690;9.466;2022-07-05T15:11:15;30.90;34.00
18974;DHT22;9621;48.690;9.466;2022-07-05T15:13:42;30.70;34.50
18974;DHT22;9621;48.690;9.466;2022-07-05T15:16:10;30.50;34.50
18974;DHT22;9621;48.690;9.466;2022-07-05T15:18:37;30.40;34.90
18974;DHT22;9621;48.690;9.466;2022-07-05T15:21:05;30.20;35.10
18974;DHT22;9621;48.690;9.466;2022-07-05T15:23:33;30.30;36.30
18974;DHT22;9621;48.690;9.466;2022-07-05T15:26:00;30.50;35.80
18974;DHT22;9621;48.690;9.466;2022-07-05T15:28:29;30.60;35.70
18974;DHT22;9621;48.690;9.466;2022-07-05T15:30:56;30.90;36.30
18974;DHT22;9621;48.690;9.466;2022-07-05T15:33:23;31.00;36.10
18974;DHT22;9621;48.690;9.466;2022-07-05T15:35:54;31.10;34.70
18974;DHT22;9621;48.690;9.466;2022-07-05T15:38:23;31.10;34.10
18974;DHT22;9621;48.690;9.466;2022-07-05T15:40:50;30.80;34.30
18974;DHT22;9621;48.690;9.466;2022-07-05T15:43:17;30.60;34.60
18974;DHT22;9621;48.690;9.466;2022-07-05T15:45:46;30.40;34.60
18974;DHT22;9621;48.690;9.466;2022-07-05T15:48:13;30.30;36.40
18974;DHT22;9621;48.690;9.466;2022-07-05T15:50:40;30.00;34.90
18974;DHT22;9621;48.690;9.466;2022-07-05T15:53:07;29.80;34.40
18974;DHT22;9621;48.690;9.466;2022-07-05T15:55:34;29.30;34.80